createdAt,value
2019-06-15T00:01:27.023Z,19.91
2019-06-15T00:03:54.494Z,19.91
2019-06-15T00:06:22.008Z,19.97
2019-06-15T00:08:49.707Z,20.02
2019-06-15T00:11:17.182Z,20.10
2019-06-15T00:13:45.002Z,20.09
2019-06-15T00:16:12.457Z,20.05
2019-06-15T00:18:39.933Z,19.99
2019-06-15T00:21:07.441Z,19.68
2019-06-15T00:23:35.033Z,19.43
2019-06-15T00:26:02.502Z,19.21
2019-06-15T00:28:29.985Z,18.98
2019-06-15T00:30:57.468Z,18.84
2019-06-15T00:33:24.974Z,18.78
2019-06-15T00:35:52.543Z,18.71
2019-06-15T00:38:20.011Z,18.73
2019-06-15T00:40:47.502Z,18.70
2019-06-15T00:43:14.963Z,18.57
2019-06-15T00:45:43.009Z,18.57
2019-06-15T00:48:10.495Z,18.58
2019-06-15T00:50:37.955Z,18.40
2019-06-15T00:53:05.460Z,18.35
2019-06-15T00:55:32.900Z,18.29
2019-06-15T00:58:00.364Z,18.20
2019-06-15T01:00:27.823Z,18.22
2019-06-15T01:02:55.289Z,18.22
2019-06-15T01:05:22.731Z,18.11
2019-06-15T01:07:50.212Z,18.02
2019-06-15T01:10:17.726Z,17.95
2019-06-15T01:12:45.228Z,17.93
2019-06-15T01:15:12.697Z,17.91
2019-06-15T01:17:40.146Z,17.87
2019-06-15T01:20:07.607Z,17.93
2019-06-15T01:22:35.096Z,17.96
2019-06-15T01:25:05.839Z,17.99
2019-06-15T01:27:30.318Z,18.06
2019-06-15T01:29:58.026Z,18.14
2019-06-15T01:32:25.522Z,18.20
2019-06-15T01:34:53.000Z,18.17
2019-06-15T01:37:20.497Z,18.03
2019-06-15T01:39:47.953Z,17.98
2019-06-15T01:42:15.402Z,17.86
2019-06-15T01:44:42.891Z,17.71
2019-06-15T01:47:10.396Z,17.65
2019-06-15T01:49:37.830Z,17.51
2019-06-15T01:52:05.347Z,17.48
2019-06-15T01:54:32.830Z,17.59
2019-06-15T01:57:00.460Z,17.56
2019-06-15T01:59:27.983Z,17.45
2019-06-15T02:01:55.480Z,17.38
2019-06-15T02:04:22.919Z,17.37
2019-06-15T02:06:50.386Z,17.49
2019-06-15T02:09:17.888Z,17.58
2019-06-15T02:11:45.421Z,17.55
2019-06-15T02:14:12.889Z,17.63
2019-06-15T02:16:40.363Z,17.66
2019-06-15T02:19:08.040Z,17.68
2019-06-15T02:21:35.559Z,17.73
2019-06-15T02:24:02.998Z,17.79
2019-06-15T02:26:30.516Z,17.87
2019-06-15T02:28:57.971Z,17.95
2019-06-15T02:31:25.693Z,17.99
2019-06-15T02:33:53.164Z,18.00
2019-06-15T02:36:20.619Z,18.00
2019-06-15T02:38:48.101Z,17.97
2019-06-15T02:41:15.596Z,17.95
2019-06-15T02:43:43.090Z,17.91
2019-06-15T02:46:10.576Z,17.89
2019-06-15T02:48:38.101Z,17.96
2019-06-15T02:51:05.565Z,18.03
2019-06-15T02:53:33.020Z,18.04
2019-06-15T02:56:00.472Z,18.04
2019-06-15T02:58:28.026Z,18.03
2019-06-15T03:01:07.857Z,17.99
2019-06-15T03:03:35.327Z,17.99
2019-06-15T03:06:02.778Z,17.97
2019-06-15T03:08:30.252Z,17.93
2019-06-15T03:10:57.707Z,17.89
2019-06-15T03:13:25.166Z,17.89
2019-06-15T03:15:52.648Z,17.79
2019-06-15T03:18:20.117Z,17.83
2019-06-15T03:20:47.622Z,17.89
2019-06-15T03:23:15.251Z,17.84
2019-06-15T03:25:42.781Z,17.82
2019-06-15T03:28:10.317Z,17.83
2019-06-15T03:30:37.887Z,17.87
2019-06-15T03:33:05.373Z,17.92
2019-06-15T03:35:32.835Z,17.98
2019-06-15T03:38:00.358Z,17.99
2019-06-15T03:40:27.838Z,18.03
2019-06-15T03:42:55.322Z,17.98
2019-06-15T03:45:22.829Z,18.00
2019-06-15T03:47:50.305Z,17.99
2019-06-15T03:50:17.771Z,17.95
2019-06-15T03:52:45.229Z,17.93
2019-06-15T03:55:12.706Z,17.88
2019-06-15T03:57:40.420Z,17.91
2019-06-15T04:00:19.567Z,17.95
2019-06-15T04:02:47.034Z,18.00
2019-06-15T04:05:14.572Z,17.99
2019-06-15T04:07:42.026Z,18.05
2019-06-15T04:10:09.516Z,18.05
2019-06-15T04:12:36.978Z,18.02
2019-06-15T04:15:04.498Z,18.05
2019-06-15T04:17:31.970Z,18.10
2019-06-15T04:19:59.514Z,18.15
2019-06-15T04:22:26.995Z,18.06
2019-06-15T04:24:55.405Z,17.94
2019-06-15T04:27:23.013Z,17.96
2019-06-15T04:29:50.480Z,18.01
2019-06-15T04:32:17.959Z,18.05
2019-06-15T04:34:45.415Z,18.08
2019-06-15T04:37:12.853Z,18.11
2019-06-15T04:39:40.368Z,18.12
2019-06-15T04:42:07.827Z,18.01
2019-06-15T04:44:35.316Z,17.88
2019-06-15T04:47:02.797Z,17.81
2019-06-15T04:49:30.255Z,17.80
2019-06-15T04:51:57.725Z,17.86
2019-06-15T04:54:25.227Z,17.87
2019-06-15T04:56:52.721Z,17.83
2019-06-15T04:59:20.199Z,17.81
2019-06-15T05:01:47.638Z,17.77
2019-06-15T05:04:15.096Z,17.78
2019-06-15T05:06:42.566Z,17.74
2019-06-15T05:09:10.015Z,17.72
2019-06-15T05:11:37.529Z,17.70
2019-06-15T05:14:05.006Z,17.65
2019-06-15T05:16:32.530Z,17.67
2019-06-15T05:19:00.018Z,17.63
2019-06-15T05:21:27.468Z,17.68
2019-06-15T05:23:54.970Z,17.67
2019-06-15T05:26:22.935Z,17.63
2019-06-15T05:28:50.427Z,17.65
2019-06-15T05:31:17.929Z,17.71
2019-06-15T05:33:45.426Z,17.75
2019-06-15T05:36:12.895Z,17.80
2019-06-15T05:38:40.343Z,17.82
2019-06-15T05:41:07.800Z,17.79
2019-06-15T05:43:35.249Z,17.82
2019-06-15T05:46:02.887Z,17.85
2019-06-15T05:48:30.351Z,17.86
2019-06-15T05:50:58.673Z,17.84
2019-06-15T05:53:25.318Z,17.81
2019-06-15T05:55:52.767Z,17.82
2019-06-15T05:58:20.226Z,17.75
2019-06-15T06:00:47.667Z,17.76
2019-06-15T06:03:15.167Z,17.81
2019-06-15T06:05:42.642Z,17.98
2019-06-15T06:08:10.136Z,18.11
2019-06-15T06:10:37.600Z,18.16
2019-06-15T06:13:05.237Z,18.25
2019-06-15T06:15:32.791Z,18.27
2019-06-15T06:18:00.314Z,18.26
2019-06-15T06:20:27.847Z,18.11
2019-06-15T06:22:56.358Z,18.06
2019-06-15T06:25:24.246Z,18.05
2019-06-15T06:27:53.733Z,17.95
2019-06-15T06:30:23.599Z,18.03
2019-06-15T06:32:51.290Z,18.05
2019-06-15T06:35:18.789Z,17.96
2019-06-15T06:37:46.496Z,17.83
2019-06-15T06:40:14.851Z,17.89
2019-06-15T06:42:42.379Z,17.91
2019-06-15T06:45:10.255Z,17.94
2019-06-15T06:47:37.825Z,17.98
2019-06-15T06:50:06.931Z,18.02
2019-06-15T06:52:35.528Z,18.08
2019-06-15T06:55:04.593Z,18.05
2019-06-15T06:57:33.267Z,18.03
2019-06-15T07:00:02.007Z,18.00
2019-06-15T07:02:30.691Z,18.02
2019-06-15T07:04:58.152Z,18.06
2019-06-15T07:07:28.036Z,18.03
2019-06-15T07:09:55.605Z,18.07
2019-06-15T07:12:24.121Z,18.13
2019-06-15T07:14:51.864Z,18.18
2019-06-15T07:17:20.202Z,18.24
2019-06-15T07:19:47.683Z,18.38
2019-06-15T07:22:15.592Z,18.54
2019-06-15T07:24:43.136Z,18.93
2019-06-15T07:27:10.928Z,19.28
2019-06-15T07:29:40.107Z,19.60
2019-06-15T07:32:07.762Z,19.52
2019-06-15T07:34:35.320Z,19.13
2019-06-15T07:37:04.324Z,18.94
2019-06-15T07:39:33.990Z,18.96
2019-06-15T07:42:01.598Z,19.09
2019-06-15T07:44:30.009Z,19.24
2019-06-15T07:46:57.759Z,19.35
2019-06-15T07:49:26.424Z,19.53
2019-06-15T07:51:55.174Z,20.15
2019-06-15T07:54:22.309Z,20.70
2019-06-15T07:56:51.317Z,21.21
2019-06-15T07:59:19.555Z,21.82
2019-06-15T08:01:47.870Z,22.16
2019-06-15T08:04:14.901Z,22.51
2019-06-15T08:06:43.074Z,22.69
2019-06-15T08:09:12.043Z,22.67
2019-06-15T08:11:39.326Z,22.87
2019-06-15T08:14:06.674Z,23.15
2019-06-15T08:16:35.244Z,23.35
2019-06-15T08:19:03.280Z,23.55
2019-06-15T08:21:31.345Z,23.97
2019-06-15T08:24:04.732Z,23.88
2019-06-15T08:26:28.903Z,23.49
2019-06-15T08:31:37.996Z,23.45
2019-06-15T08:34:05.364Z,23.70
2019-06-15T08:36:35.530Z,23.88
2019-06-15T08:39:04.431Z,23.98
2019-06-15T08:41:32.374Z,23.93
2019-06-15T08:44:01.255Z,23.76
2019-06-15T08:46:29.172Z,23.84
2019-06-15T08:48:57.227Z,24.03
2019-06-15T08:51:24.991Z,24.03
2019-06-15T08:53:52.297Z,24.24
2019-06-15T08:56:20.716Z,24.25
2019-06-15T08:58:55.557Z,24.23
2019-06-15T09:01:15.769Z,24.04
2019-06-15T09:03:43.396Z,24.37
2019-06-15T09:06:11.091Z,24.40
2019-06-15T09:08:39.335Z,24.76
2019-06-15T09:11:07.901Z,24.69
2019-06-15T09:13:36.103Z,25.06
2019-06-15T09:16:05.395Z,25.38
2019-06-15T09:18:34.713Z,25.48
2019-06-15T09:21:02.402Z,24.29
2019-06-15T09:23:30.567Z,23.99
2019-06-15T09:25:58.810Z,24.09
2019-06-15T09:28:28.399Z,24.32
2019-06-15T09:30:56.301Z,24.82
2019-06-15T09:33:23.933Z,25.40
2019-06-15T09:35:51.464Z,25.28
2019-06-15T09:38:19.444Z,25.04
2019-06-15T09:40:47.106Z,25.09
2019-06-15T09:43:14.627Z,25.02
2019-06-15T09:45:42.420Z,24.96
2019-06-15T09:48:10.190Z,24.94
2019-06-15T09:50:39.443Z,24.83
2019-06-15T09:53:07.606Z,24.80
2019-06-15T09:55:35.293Z,24.94
2019-06-15T09:58:03.908Z,24.86
2019-06-15T10:00:33.696Z,24.90
2019-06-15T10:03:03.359Z,25.18
2019-06-15T10:05:30.923Z,25.27
2019-06-15T10:08:00.894Z,25.22
2019-06-15T10:10:29.511Z,25.11
2019-06-15T10:12:58.589Z,25.30
2019-06-15T10:15:29.155Z,25.46
2019-06-15T10:17:57.855Z,25.66
2019-06-15T10:20:27.602Z,25.85
2019-06-15T10:22:55.025Z,25.86
2019-06-15T10:25:22.972Z,25.76
2019-06-15T10:27:50.525Z,25.98
2019-06-15T10:30:18.407Z,25.77
2019-06-15T10:32:45.951Z,25.63
2019-06-15T10:35:14.744Z,25.51
2019-06-15T10:37:44.302Z,25.40
2019-06-15T10:40:13.892Z,25.81
2019-06-15T10:42:42.651Z,26.23
2019-06-15T10:45:12.425Z,26.41
2019-06-15T10:47:40.860Z,26.66
2019-06-15T10:50:10.625Z,26.53
2019-06-15T10:52:38.156Z,26.35
2019-06-15T10:55:06.581Z,26.50
2019-06-15T10:57:34.297Z,26.50
2019-06-15T11:00:02.288Z,26.29
2019-06-15T11:02:31.003Z,26.17
2019-06-15T11:04:58.826Z,26.29
2019-06-15T11:07:27.209Z,26.51
2019-06-15T11:09:54.206Z,26.99
2019-06-15T11:12:21.915Z,27.10
2019-06-15T11:14:49.540Z,27.42
2019-06-15T11:17:20.134Z,27.43
2019-06-15T11:19:48.006Z,27.26
2019-06-15T11:22:15.493Z,27.18
2019-06-15T11:24:43.026Z,27.55
2019-06-15T11:27:11.158Z,27.70
2019-06-15T11:29:40.451Z,27.48
2019-06-15T11:32:09.062Z,27.55
2019-06-15T11:34:36.057Z,27.42
2019-06-15T11:37:03.485Z,27.11
2019-06-15T11:39:30.960Z,27.21
2019-06-15T11:41:58.178Z,27.50
2019-06-15T11:44:26.061Z,27.48
2019-06-15T11:46:53.990Z,27.58
2019-06-15T11:49:22.169Z,27.83
2019-06-15T11:51:51.857Z,28.16
2019-06-15T11:54:21.203Z,28.09
2019-06-15T11:56:50.061Z,28.22
2019-06-15T11:59:19.509Z,27.92
2019-06-15T12:01:48.097Z,27.75
2019-06-15T12:04:17.346Z,27.71
2019-06-15T12:06:44.999Z,27.84
2019-06-15T12:09:12.765Z,27.45
2019-06-15T12:11:42.093Z,27.57
2019-06-15T12:14:13.226Z,28.12
2019-06-15T12:16:41.238Z,28.30
2019-06-15T12:19:13.795Z,28.57
2019-06-15T12:21:40.837Z,28.40
2019-06-15T12:24:08.305Z,27.65
2019-06-15T12:26:36.113Z,27.14
2019-06-15T12:29:03.710Z,26.72
2019-06-15T12:31:31.322Z,26.57
2019-06-15T12:33:58.540Z,26.54
2019-06-15T12:36:26.018Z,26.51
2019-06-15T12:41:27.444Z,27.23
2019-06-15T12:43:54.946Z,27.55
2019-06-15T12:46:23.422Z,27.77
2019-06-15T12:48:50.990Z,27.90
2019-06-15T12:51:18.745Z,28.06
2019-06-15T12:53:46.268Z,27.95
2019-06-15T12:56:15.111Z,27.75
2019-06-15T12:58:42.619Z,27.70
2019-06-15T13:01:10.217Z,28.09
2019-06-15T13:03:37.670Z,27.97
2019-06-15T13:06:05.143Z,27.64
2019-06-15T13:08:32.825Z,27.54
2019-06-15T13:11:00.274Z,27.50
2019-06-15T13:13:29.348Z,27.49
2019-06-15T13:15:56.860Z,27.95
2019-06-15T13:18:24.860Z,28.31
2019-06-15T13:20:52.475Z,28.19
2019-06-15T13:23:20.971Z,27.92
2019-06-15T13:25:52.737Z,27.54
2019-06-15T13:28:20.493Z,27.15
2019-06-15T13:30:48.773Z,26.93
2019-06-15T13:33:16.408Z,26.64
2019-06-15T13:35:44.315Z,26.31
2019-06-15T13:38:11.858Z,26.18
2019-06-15T13:40:39.364Z,26.10
2019-06-15T13:43:06.894Z,25.91
2019-06-15T13:45:34.025Z,25.60
2019-06-15T13:48:01.062Z,25.05
2019-06-15T13:50:28.149Z,24.73
2019-06-15T13:52:55.473Z,24.51
2019-06-15T13:55:22.512Z,24.48
2019-06-15T13:57:49.543Z,24.35
2019-06-15T14:00:17.055Z,24.28
2019-06-15T14:02:44.474Z,24.17
2019-06-15T14:05:12.598Z,24.12
2019-06-15T14:07:40.347Z,23.95
2019-06-15T14:10:08.515Z,23.96
2019-06-15T14:12:36.410Z,23.85
2019-06-15T14:15:04.243Z,23.56
2019-06-15T14:17:39.781Z,23.33
2019-06-15T14:20:05.480Z,23.13
2019-06-15T14:22:32.794Z,22.99
2019-06-15T14:24:59.889Z,22.85
2019-06-15T14:27:28.213Z,22.73
2019-06-15T14:29:56.021Z,22.68
2019-06-15T14:32:25.742Z,22.62
2019-06-15T14:34:53.223Z,22.64
2019-06-15T14:37:21.035Z,20.84
2019-06-15T14:39:48.856Z,17.54
2019-06-15T14:42:16.732Z,15.82
2019-06-15T14:44:44.258Z,15.17
2019-06-15T14:47:11.987Z,14.24
2019-06-15T14:49:39.785Z,12.88
2019-06-15T14:52:07.878Z,12.37
2019-06-15T14:54:37.278Z,12.48
2019-06-15T14:57:03.146Z,12.63
2019-06-15T14:59:31.339Z,12.76
2019-06-15T15:02:09.984Z,12.79
2019-06-15T15:04:27.024Z,12.84
2019-06-15T15:06:56.541Z,13.03
2019-06-15T15:09:23.043Z,13.33
2019-06-15T15:11:52.646Z,13.60
2019-06-15T15:14:20.309Z,13.84
2019-06-15T15:16:51.090Z,14.17
2019-06-15T15:19:19.752Z,14.38
2019-06-15T15:21:47.517Z,14.43
2019-06-15T15:24:17.685Z,14.44
2019-06-15T15:26:47.009Z,14.51
2019-06-15T15:29:12.912Z,14.55
2019-06-15T15:31:40.630Z,14.58
2019-06-15T15:34:08.818Z,14.69
2019-06-15T15:36:36.840Z,14.75
2019-06-15T15:39:06.092Z,14.79
2019-06-15T15:41:31.663Z,14.88
2019-06-15T15:44:03.949Z,14.90
2019-06-15T15:46:31.471Z,14.94
2019-06-15T15:48:58.915Z,14.98
2019-06-15T15:51:26.505Z,15.08
2019-06-15T15:53:56.706Z,15.14
2019-06-15T15:56:23.227Z,15.28
2019-06-15T15:58:50.892Z,15.36
2019-06-15T16:01:19.011Z,15.46
2019-06-15T16:03:47.660Z,15.47
2019-06-15T16:06:15.999Z,15.56
2019-06-15T16:08:46.986Z,15.58
2019-06-15T16:11:12.532Z,15.65
2019-06-15T16:13:40.837Z,15.67
2019-06-15T16:16:09.516Z,15.70
2019-06-15T16:18:37.952Z,15.69
2019-06-15T16:21:06.449Z,15.67
2019-06-15T16:23:33.003Z,15.73
2019-06-15T16:26:00.619Z,15.76
2019-06-15T16:28:32.898Z,15.73
2019-06-15T16:31:09.233Z,15.77
2019-06-15T16:33:28.969Z,15.83
2019-06-15T16:36:00.275Z,15.84
2019-06-15T16:38:28.271Z,15.89
2019-06-15T16:40:56.118Z,16.00
2019-06-15T16:43:25.302Z,16.23
2019-06-15T16:45:51.032Z,16.42
2019-06-15T16:48:18.658Z,16.69
2019-06-15T16:50:46.928Z,16.96
2019-06-15T16:53:16.668Z,17.24
2019-06-15T16:55:42.171Z,17.48
2019-06-15T16:58:10.566Z,17.71
2019-06-15T17:00:41.334Z,17.87
2019-06-15T17:03:21.077Z,18.02
2019-06-15T17:05:36.949Z,18.24
2019-06-15T17:08:06.697Z,18.31
2019-06-15T17:10:40.571Z,18.36
2019-06-15T17:13:08.367Z,18.44
2019-06-15T17:15:37.105Z,18.62
2019-06-15T17:18:04.143Z,18.64
2019-06-15T17:20:37.442Z,18.67
2019-06-15T17:23:06.759Z,18.67
2019-06-15T17:25:32.583Z,18.57
2019-06-15T17:28:00.092Z,18.66
2019-06-15T17:30:27.679Z,18.70
2019-06-15T17:32:56.707Z,18.70
2019-06-15T17:35:23.059Z,18.67
2019-06-15T17:37:50.729Z,18.83
2019-06-15T17:40:19.145Z,18.91
2019-06-15T17:42:46.654Z,18.82
2019-06-15T17:45:16.127Z,18.78
2019-06-15T17:47:41.799Z,18.70
2019-06-15T17:50:10.001Z,18.65
2019-06-15T17:52:37.910Z,18.62
2019-06-15T17:55:07.196Z,18.72
2019-06-15T17:57:36.012Z,18.57
2019-06-15T18:00:02.370Z,18.21
2019-06-15T18:02:29.807Z,18.00
2019-06-15T18:04:57.583Z,17.85
2019-06-15T18:07:26.343Z,17.73
2019-06-15T18:09:58.978Z,17.68
2019-06-15T18:12:26.927Z,17.69
2019-06-15T18:14:53.970Z,17.65
2019-06-15T18:17:21.629Z,17.58
2019-06-15T18:19:49.153Z,17.57
2019-06-15T18:22:17.138Z,17.63
2019-06-15T18:24:46.505Z,17.78
2019-06-15T18:27:11.869Z,17.79
2019-06-15T18:29:39.376Z,17.75
2019-06-15T18:32:06.872Z,17.69
2019-06-15T18:34:36.795Z,17.55
2019-06-15T18:37:02.680Z,17.46
2019-06-15T18:39:30.255Z,17.49
2019-06-15T18:41:57.947Z,17.60
2019-06-15T18:44:26.915Z,17.50
2019-06-15T18:46:53.005Z,17.59
2019-06-15T18:49:20.493Z,17.70
2019-06-15T18:51:48.048Z,17.72
2019-06-15T18:54:15.998Z,17.74
2019-06-15T18:56:42.973Z,17.67
2019-06-15T18:59:10.456Z,17.62
2019-06-15T19:01:38.039Z,17.58
2019-06-15T19:04:06.760Z,17.53
2019-06-15T19:06:33.678Z,17.47
2019-06-15T19:09:01.219Z,17.45
2019-06-15T19:11:28.967Z,17.46
2019-06-15T19:13:56.634Z,17.46
2019-06-15T19:16:25.756Z,17.47
2019-06-15T19:18:53.223Z,17.42
2019-06-15T19:21:22.215Z,17.43
2019-06-15T19:23:49.779Z,17.27
2019-06-15T19:26:17.669Z,17.12
2019-06-15T19:28:45.949Z,17.15
2019-06-15T19:31:12.767Z,17.20
2019-06-15T19:33:41.980Z,17.27
2019-06-15T19:36:09.563Z,17.29
2019-06-15T19:38:37.267Z,17.33
2019-06-15T19:41:06.913Z,17.30
2019-06-15T19:43:36.130Z,17.25
2019-06-15T19:46:01.651Z,17.20
2019-06-15T19:48:29.123Z,17.22
2019-06-15T19:50:57.697Z,17.23
2019-06-15T19:53:27.288Z,17.33
2019-06-15T19:55:57.155Z,17.33
2019-06-15T19:58:22.380Z,17.31
2019-06-15T20:00:49.898Z,17.27
2019-06-15T20:03:17.361Z,17.25
2019-06-15T20:05:46.173Z,17.25
2019-06-15T20:08:13.047Z,17.31
2019-06-15T20:10:40.677Z,17.25
2019-06-15T20:13:08.416Z,17.10
2019-06-15T20:15:37.820Z,17.06
2019-06-15T20:18:06.679Z,17.06
2019-06-15T20:20:31.608Z,17.11
2019-06-15T20:22:59.314Z,17.16
2019-06-15T20:25:26.971Z,17.17
2019-06-15T20:27:56.418Z,17.15
2019-06-15T20:30:22.220Z,17.12
2019-06-15T20:32:50.332Z,17.06
2019-06-15T20:35:21.197Z,17.00
2019-06-15T20:37:46.503Z,16.96
2019-06-15T20:40:16.509Z,16.88
2019-06-15T20:42:42.182Z,16.80
2019-06-15T20:45:10.041Z,16.81
2019-06-15T20:47:37.491Z,16.83
2019-06-15T20:50:07.674Z,16.86
2019-06-15T20:52:36.824Z,16.87
2019-06-15T20:55:06.446Z,16.87
2019-06-15T20:57:31.673Z,16.85
2019-06-15T20:59:59.139Z,16.82
2019-06-15T21:02:27.147Z,16.77
2019-06-15T21:05:00.623Z,16.73
2019-06-15T21:07:28.096Z,16.66
2019-06-15T21:09:57.402Z,16.57
2019-06-15T21:12:23.036Z,16.52
2019-06-15T21:14:50.528Z,16.52
2019-06-15T21:17:18.006Z,16.52
2019-06-15T21:19:46.577Z,16.55
2019-06-15T21:22:13.002Z,16.48
2019-06-15T21:24:40.553Z,16.44
2019-06-15T21:27:09.256Z,16.40
2019-06-15T21:29:42.116Z,16.40
2019-06-15T21:32:09.904Z,16.40
2019-06-15T21:34:39.596Z,16.37
2019-06-15T21:37:08.420Z,16.35
2019-06-15T21:39:36.963Z,16.35
2019-06-15T21:42:05.054Z,16.40
2019-06-15T21:44:32.644Z,16.38
2019-06-15T21:47:00.121Z,16.38
2019-06-15T21:49:27.779Z,16.34
2019-06-15T21:51:56.400Z,16.28
2019-06-15T21:54:23.653Z,16.21
2019-06-15T21:56:51.558Z,16.14
2019-06-15T21:59:19.254Z,16.08
2019-06-15T22:01:47.077Z,16.05
2019-06-15T22:04:16.606Z,16.05
2019-06-15T22:06:42.435Z,15.99
2019-06-15T22:09:09.934Z,15.95
2019-06-15T22:11:37.568Z,15.92
2019-06-15T22:14:06.382Z,15.94
2019-06-15T22:16:34.259Z,15.94
2019-06-15T22:19:02.331Z,16.01
2019-06-15T22:21:30.585Z,16.09
2019-06-15T22:23:58.632Z,16.11
2019-06-15T22:26:27.208Z,16.14
2019-06-15T22:28:56.925Z,16.14
2019-06-15T22:31:25.347Z,16.11
2019-06-15T22:33:52.830Z,16.04
2019-06-15T22:36:25.339Z,15.99
2019-06-15T22:38:49.225Z,16.02
2019-06-15T22:41:18.334Z,16.04
2019-06-15T22:43:46.715Z,16.07
2019-06-15T22:46:16.427Z,16.04
2019-06-15T22:48:42.160Z,16.05
2019-06-15T22:51:10.954Z,16.05
2019-06-15T22:53:39.137Z,16.03
2019-06-15T22:56:06.857Z,16.06
2019-06-15T22:58:37.583Z,16.09
2019-06-15T23:01:06.327Z,16.08
2019-06-15T23:03:34.375Z,16.09
2019-06-15T23:06:03.181Z,16.10
2019-06-15T23:08:30.935Z,16.08
2019-06-15T23:10:58.910Z,16.00
2019-06-15T23:13:26.585Z,15.92
2019-06-15T23:15:56.432Z,15.84
2019-06-15T23:18:24.089Z,15.80
2019-06-15T23:20:53.551Z,15.75
2019-06-15T23:23:22.519Z,15.73
2019-06-15T23:25:51.157Z,15.73
2019-06-15T23:28:19.422Z,15.74
2019-06-15T23:30:47.950Z,15.73
2019-06-15T23:36:11.274Z,15.96
2019-06-15T23:38:39.350Z,15.94
2019-06-15T23:41:08.078Z,15.86
2019-06-15T23:43:37.425Z,15.75
2019-06-15T23:46:06.680Z,15.67
2019-06-15T23:48:32.416Z,15.69
2019-06-15T23:51:01.262Z,15.70
2019-06-15T23:53:31.107Z,15.66
2019-06-15T23:55:59.417Z,15.55
2019-06-15T23:58:29.935Z,15.54
